createdAt,value
2019-03-23T00:01:20.771Z,37.45
2019-03-23T00:03:54.930Z,40.55
2019-03-23T00:06:31.078Z,40.78
2019-03-23T00:09:06.232Z,40.45
2019-03-23T00:11:40.726Z,41.63
2019-03-23T00:14:16.237Z,37.65
2019-03-23T00:16:51.414Z,37.90
2019-03-23T00:19:26.470Z,35.03
2019-03-23T00:22:00.992Z,35.35
2019-03-23T00:24:35.901Z,36.05
2019-03-23T00:27:10.485Z,35.38
2019-03-23T00:29:45.457Z,38.00
2019-03-23T00:32:20.491Z,35.43
2019-03-23T00:34:55.419Z,33.85
2019-03-23T00:37:30.349Z,34.00
2019-03-23T00:40:05.080Z,33.40
2019-03-23T00:42:40.024Z,33.28
2019-03-23T00:45:14.849Z,31.90
2019-03-23T00:47:49.347Z,32.33
2019-03-23T00:50:24.333Z,31.62
2019-03-23T00:52:59.114Z,31.37
2019-03-23T00:55:33.782Z,31.27
2019-03-23T00:58:08.266Z,28.07
2019-03-23T01:00:43.094Z,27.58
2019-03-23T01:03:18.277Z,26.90
2019-03-23T01:05:53.369Z,26.70
2019-03-23T01:08:27.892Z,26.87
2019-03-23T01:11:02.947Z,29.37
2019-03-23T01:13:37.465Z,28.67
2019-03-23T01:16:12.426Z,28.83
2019-03-23T01:18:46.924Z,28.12
2019-03-23T01:21:21.437Z,27.65
2019-03-23T01:23:57.071Z,27.60
2019-03-23T01:26:31.814Z,26.77
2019-03-23T01:29:06.990Z,27.35
2019-03-23T01:31:41.716Z,28.10
2019-03-23T01:34:16.111Z,26.10
2019-03-23T01:36:50.519Z,26.90
2019-03-23T01:39:25.619Z,26.75
2019-03-23T01:42:00.596Z,26.65
2019-03-23T01:44:35.383Z,27.77
2019-03-23T01:47:09.840Z,25.17
2019-03-23T01:49:43.991Z,26.40
2019-03-23T01:52:18.492Z,24.92
2019-03-23T01:54:52.732Z,25.35
2019-03-23T01:57:27.228Z,25.00
2019-03-23T02:00:02.052Z,25.52
2019-03-23T02:02:36.612Z,26.12
2019-03-23T02:05:11.626Z,28.10
2019-03-23T02:07:46.886Z,27.45
2019-03-23T02:10:22.132Z,29.00
2019-03-23T02:12:57.037Z,29.63
2019-03-23T02:15:31.138Z,30.50
2019-03-23T02:18:05.808Z,32.03
2019-03-23T02:20:40.810Z,28.62
2019-03-23T02:23:15.647Z,29.02
2019-03-23T02:25:50.473Z,30.30
2019-03-23T02:28:24.101Z,30.57
2019-03-23T02:30:59.035Z,30.92
2019-03-23T02:33:34.141Z,30.92
2019-03-23T02:36:08.645Z,31.93
2019-03-23T02:38:43.606Z,33.00
2019-03-23T02:41:18.634Z,30.20
2019-03-23T02:43:53.226Z,31.33
2019-03-23T02:46:27.860Z,33.00
2019-03-23T02:49:02.816Z,30.90
2019-03-23T02:51:39.772Z,29.90
2019-03-23T02:54:14.406Z,32.15
2019-03-23T02:56:49.054Z,32.73
2019-03-23T02:59:24.813Z,33.48
2019-03-23T03:01:59.658Z,33.58
2019-03-23T03:04:35.393Z,34.73
2019-03-23T03:07:10.420Z,33.02
2019-03-23T03:09:45.578Z,34.33
2019-03-23T03:12:20.513Z,35.92
2019-03-23T03:14:55.424Z,36.77
2019-03-23T03:17:30.008Z,36.98
2019-03-23T03:20:05.151Z,36.20
2019-03-23T03:22:40.550Z,36.35
2019-03-23T03:25:15.775Z,35.25
2019-03-23T03:27:50.802Z,36.33
2019-03-23T03:30:25.815Z,38.73
2019-03-23T03:33:00.756Z,36.20
2019-03-23T03:35:35.492Z,35.05
2019-03-23T03:38:09.988Z,36.95
2019-03-23T03:40:45.209Z,35.63
2019-03-23T03:43:20.678Z,34.80
2019-03-23T03:45:55.742Z,36.63
2019-03-23T03:48:30.717Z,36.45
2019-03-23T03:51:06.231Z,34.92
2019-03-23T03:53:41.181Z,35.38
2019-03-23T03:56:16.194Z,35.83
2019-03-23T03:58:50.392Z,34.60
2019-03-23T04:01:26.110Z,33.78
2019-03-23T04:04:00.873Z,34.10
2019-03-23T04:06:35.932Z,32.73
2019-03-23T04:09:12.218Z,35.55
2019-03-23T04:11:47.322Z,33.02
2019-03-23T04:14:22.154Z,33.85
2019-03-23T04:16:56.988Z,32.15
2019-03-23T04:19:31.914Z,30.48
2019-03-23T04:22:06.628Z,32.23
2019-03-23T04:24:41.688Z,32.65
2019-03-23T04:27:16.212Z,30.90
2019-03-23T04:29:51.484Z,30.85
2019-03-23T04:32:25.760Z,32.73
2019-03-23T04:35:00.897Z,34.18
2019-03-23T04:37:35.557Z,32.88
2019-03-23T04:40:10.388Z,33.40
2019-03-23T04:42:44.713Z,30.43
2019-03-23T04:45:19.024Z,32.70
2019-03-23T04:47:53.511Z,34.78
2019-03-23T04:50:28.137Z,34.63
2019-03-23T04:53:02.898Z,33.75
2019-03-23T04:55:37.499Z,33.30
2019-03-23T04:58:12.434Z,33.73
2019-03-23T05:00:49.459Z,36.08
2019-03-23T05:03:24.469Z,36.77
2019-03-23T05:05:59.383Z,36.00
2019-03-23T05:08:34.188Z,36.80
2019-03-23T05:11:08.951Z,39.33
2019-03-23T05:13:43.299Z,37.65
2019-03-23T05:16:18.269Z,40.23
2019-03-23T05:18:54.663Z,37.73
2019-03-23T05:21:29.173Z,39.53
2019-03-23T05:24:03.904Z,39.00
2019-03-23T05:26:38.603Z,38.53
2019-03-23T05:29:12.520Z,40.58
2019-03-23T05:31:47.167Z,41.85
2019-03-23T05:34:22.029Z,41.70
2019-03-23T05:36:57.291Z,41.75
2019-03-23T05:39:32.200Z,40.95
2019-03-23T05:42:06.721Z,39.78
2019-03-23T05:44:41.846Z,37.15
2019-03-23T05:47:16.611Z,39.00
2019-03-23T05:49:50.928Z,37.75
2019-03-23T05:52:25.556Z,36.17
2019-03-23T05:55:00.553Z,35.70
2019-03-23T05:57:35.375Z,36.10
2019-03-23T06:00:09.160Z,34.98
2019-03-23T06:02:44.323Z,36.35
2019-03-23T06:05:20.207Z,37.65
2019-03-23T06:07:55.192Z,36.10
2019-03-23T06:10:30.445Z,34.90
2019-03-23T06:13:05.264Z,35.38
2019-03-23T06:15:39.609Z,36.73
2019-03-23T06:18:14.186Z,37.73
2019-03-23T06:20:48.942Z,40.40
2019-03-23T06:23:24.400Z,36.95
2019-03-23T06:25:59.190Z,36.40
2019-03-23T06:28:34.356Z,35.73
2019-03-23T06:31:09.036Z,35.23
2019-03-23T06:33:43.797Z,35.95
2019-03-23T06:36:18.619Z,33.18
2019-03-23T06:38:53.102Z,32.88
2019-03-23T06:41:27.608Z,33.05
2019-03-23T06:44:02.100Z,31.95
2019-03-23T06:46:36.909Z,29.60
2019-03-23T06:49:12.104Z,26.95
2019-03-23T06:51:46.353Z,28.32
2019-03-23T06:54:20.285Z,27.17
2019-03-23T06:56:54.990Z,28.62
2019-03-23T06:59:29.930Z,26.45
2019-03-23T07:02:03.646Z,28.20
2019-03-23T07:04:38.698Z,27.55
2019-03-23T07:07:13.872Z,25.23
2019-03-23T07:09:48.811Z,25.77
2019-03-23T07:12:23.502Z,26.75
2019-03-23T07:14:57.971Z,25.68
2019-03-23T07:17:32.478Z,25.70
2019-03-23T07:20:07.553Z,25.45
2019-03-23T07:22:41.851Z,27.58
2019-03-23T07:25:16.100Z,26.95
2019-03-23T07:27:49.948Z,27.25
2019-03-23T07:30:24.352Z,25.55
2019-03-23T07:32:59.053Z,26.55
2019-03-23T07:35:34.120Z,27.75
2019-03-23T07:38:08.620Z,26.42
2019-03-23T07:40:43.422Z,28.17
2019-03-23T07:43:17.916Z,28.57
2019-03-23T07:45:53.114Z,29.32
2019-03-23T07:48:28.609Z,28.98
2019-03-23T07:51:03.621Z,29.12
2019-03-23T07:53:38.415Z,25.80
2019-03-23T07:56:13.590Z,23.22
2019-03-23T07:58:48.561Z,25.25
2019-03-23T08:01:23.407Z,23.20
2019-03-23T08:03:57.911Z,22.67
2019-03-23T08:06:32.426Z,22.65
2019-03-23T08:09:08.304Z,22.32
2019-03-23T08:11:43.628Z,23.75
2019-03-23T08:14:18.347Z,24.05
2019-03-23T08:16:54.411Z,23.92
2019-03-23T08:19:29.194Z,23.98
2019-03-23T08:22:04.262Z,24.32
2019-03-23T08:24:38.191Z,23.52
2019-03-23T08:27:13.166Z,23.87
2019-03-23T08:29:47.817Z,23.57
2019-03-23T08:32:22.861Z,23.73
2019-03-23T08:34:58.155Z,22.77
2019-03-23T08:37:32.972Z,23.00
2019-03-23T08:40:07.782Z,22.42
2019-03-23T08:42:41.924Z,24.40
2019-03-23T08:45:16.101Z,23.70
2019-03-23T08:47:50.627Z,24.98
2019-03-23T08:50:25.765Z,22.95
2019-03-23T08:53:00.583Z,24.07
2019-03-23T08:55:35.579Z,23.65
2019-03-23T08:58:10.560Z,23.95
2019-03-23T09:00:46.141Z,24.65
2019-03-23T09:03:20.607Z,25.30
2019-03-23T09:05:55.218Z,24.25
2019-03-23T09:08:30.620Z,23.90
2019-03-23T09:11:04.619Z,27.05
2019-03-23T09:13:40.838Z,24.85
2019-03-23T09:16:15.154Z,26.33
2019-03-23T09:18:50.762Z,24.82
2019-03-23T09:21:25.869Z,22.58
2019-03-23T09:24:00.908Z,23.02
2019-03-23T09:26:35.500Z,22.30
2019-03-23T09:29:12.802Z,22.60
2019-03-23T09:31:47.324Z,23.05
2019-03-23T09:34:21.943Z,23.62
2019-03-23T09:36:56.648Z,23.55
2019-03-23T09:39:31.102Z,23.77
2019-03-23T09:42:07.113Z,23.22
2019-03-23T09:44:44.697Z,20.57
2019-03-23T09:47:19.156Z,20.72
2019-03-23T09:49:52.742Z,23.47
2019-03-23T09:52:27.142Z,21.75
2019-03-23T09:55:00.341Z,22.37
2019-03-23T09:57:34.525Z,22.90
2019-03-23T10:00:07.983Z,22.85
2019-03-23T10:02:41.509Z,21.85
2019-03-23T10:05:15.057Z,23.32
2019-03-23T10:07:49.728Z,23.05
2019-03-23T10:10:24.764Z,20.85
2019-03-23T10:12:59.739Z,23.45
2019-03-23T10:15:34.736Z,23.40
2019-03-23T10:18:09.382Z,25.35
2019-03-23T10:20:43.478Z,24.92
2019-03-23T10:23:18.513Z,25.68
2019-03-23T10:25:53.135Z,26.62
2019-03-23T10:28:27.579Z,27.25
2019-03-23T10:31:02.604Z,25.65
2019-03-23T10:33:37.137Z,27.73
2019-03-23T10:36:12.374Z,24.12
2019-03-23T10:38:47.385Z,25.10
2019-03-23T10:41:22.341Z,27.35
2019-03-23T10:43:56.843Z,28.77
2019-03-23T10:46:31.977Z,28.87
2019-03-23T10:49:06.588Z,30.43
2019-03-23T10:51:41.138Z,27.07
2019-03-23T10:54:15.939Z,23.67
2019-03-23T10:56:50.900Z,24.65
2019-03-23T10:59:27.940Z,25.85
2019-03-23T11:02:01.256Z,26.07
2019-03-23T11:04:35.997Z,22.58
2019-03-23T11:07:12.831Z,21.10
2019-03-23T11:09:47.354Z,21.55
2019-03-23T11:12:22.434Z,22.70
2019-03-23T11:14:56.957Z,23.20
2019-03-23T11:17:31.790Z,21.77
2019-03-23T11:20:06.649Z,20.23
2019-03-23T11:22:40.840Z,19.23
2019-03-23T11:25:15.955Z,17.73
2019-03-23T11:27:50.919Z,19.75
2019-03-23T11:30:25.762Z,19.37
2019-03-23T11:33:00.901Z,20.92
2019-03-23T11:35:35.683Z,22.07
2019-03-23T11:38:11.133Z,21.12
2019-03-23T11:40:53.849Z,21.15
2019-03-23T11:43:22.478Z,21.77
2019-03-23T11:45:57.090Z,18.32
2019-03-23T11:48:31.235Z,18.82
2019-03-23T11:51:06.202Z,18.32
2019-03-23T11:53:41.170Z,19.48
2019-03-23T11:56:16.806Z,19.05
2019-03-23T11:58:53.903Z,19.10
2019-03-23T12:01:28.189Z,19.35
2019-03-23T12:04:05.247Z,21.17
2019-03-23T12:06:40.425Z,21.30
2019-03-23T12:09:14.846Z,19.95
2019-03-23T12:11:51.811Z,20.02
2019-03-23T12:14:25.961Z,19.30
2019-03-23T12:17:00.883Z,19.25
2019-03-23T12:19:35.459Z,17.77
2019-03-23T12:22:09.522Z,18.90
2019-03-23T12:24:44.571Z,19.23
2019-03-23T12:27:19.613Z,18.27
2019-03-23T12:29:54.540Z,19.35
2019-03-23T12:32:29.363Z,19.05
2019-03-23T12:35:03.872Z,17.10
2019-03-23T12:37:39.012Z,18.95
2019-03-23T12:40:12.716Z,20.10
2019-03-23T12:42:47.847Z,20.80
2019-03-23T12:45:22.312Z,18.82
2019-03-23T12:47:57.391Z,19.77
2019-03-23T12:50:31.709Z,17.65
2019-03-23T12:53:06.891Z,19.17
2019-03-23T12:55:41.581Z,17.12
2019-03-23T12:58:18.105Z,16.67
2019-03-23T13:00:52.694Z,16.67
2019-03-23T13:03:27.628Z,17.70
2019-03-23T13:06:02.997Z,18.45
2019-03-23T13:08:36.668Z,17.23
2019-03-23T13:11:09.841Z,16.77
2019-03-23T13:13:43.646Z,15.23
2019-03-23T13:16:16.429Z,13.83
2019-03-23T13:18:56.440Z,15.50
2019-03-23T13:21:32.665Z,15.53
2019-03-23T13:24:08.341Z,16.75
2019-03-23T13:26:42.870Z,15.72
2019-03-23T13:29:17.073Z,16.02
2019-03-23T13:31:51.872Z,17.42
2019-03-23T13:34:28.796Z,16.42
2019-03-23T13:37:02.041Z,16.62
2019-03-23T13:39:35.179Z,17.07
2019-03-23T13:42:09.888Z,15.78
2019-03-23T13:44:43.653Z,16.15
2019-03-23T13:47:18.531Z,15.60
2019-03-23T13:49:52.809Z,16.02
2019-03-23T13:52:30.010Z,16.97
2019-03-23T13:55:03.705Z,16.82
2019-03-23T13:57:37.526Z,15.65
2019-03-23T14:00:12.812Z,16.35
2019-03-23T14:02:47.405Z,16.65
2019-03-23T14:05:38.952Z,15.55
2019-03-23T14:08:12.261Z,15.68
2019-03-23T14:10:47.722Z,17.05
2019-03-23T14:13:22.029Z,15.65
2019-03-23T14:15:56.885Z,14.23
2019-03-23T14:18:31.639Z,13.88
2019-03-23T14:21:06.621Z,13.55
2019-03-23T14:23:41.137Z,14.15
2019-03-23T14:26:16.274Z,13.68
2019-03-23T14:28:51.211Z,13.20
2019-03-23T14:31:26.738Z,13.55
2019-03-23T14:34:01.339Z,13.40
2019-03-23T14:36:36.047Z,12.28
2019-03-23T14:39:10.737Z,10.88
2019-03-23T14:41:45.207Z,13.53
2019-03-23T14:44:20.397Z,13.13
2019-03-23T14:46:55.325Z,12.78
2019-03-23T14:49:29.529Z,13.58
2019-03-23T14:52:03.210Z,13.00
2019-03-23T14:54:37.358Z,11.95
2019-03-23T14:57:12.295Z,12.20
2019-03-23T14:59:47.326Z,12.13
2019-03-23T15:02:22.238Z,11.83
2019-03-23T15:04:57.175Z,11.28
2019-03-23T15:07:31.407Z,10.65
2019-03-23T15:10:05.835Z,11.28
2019-03-23T15:12:40.769Z,11.85
2019-03-23T15:15:15.299Z,12.70
2019-03-23T15:17:49.495Z,11.80
2019-03-23T15:20:24.055Z,13.00
2019-03-23T15:22:59.159Z,13.78
2019-03-23T15:25:34.914Z,12.70
2019-03-23T15:28:09.573Z,12.88
2019-03-23T15:30:44.577Z,11.85
2019-03-23T15:33:19.637Z,11.80
2019-03-23T15:35:54.195Z,12.30
2019-03-23T15:38:29.359Z,13.05
2019-03-23T15:41:03.731Z,13.48
2019-03-23T15:43:38.616Z,13.45
2019-03-23T15:46:12.383Z,13.70
2019-03-23T15:48:45.254Z,13.90
2019-03-23T15:51:18.825Z,14.30
2019-03-23T15:53:52.043Z,14.98
2019-03-23T15:56:24.924Z,15.98
2019-03-23T15:58:58.936Z,16.73
2019-03-23T16:01:32.686Z,16.20
2019-03-23T16:04:06.066Z,17.30
2019-03-23T16:06:40.102Z,16.27
2019-03-23T16:09:14.013Z,15.72
2019-03-23T16:11:48.004Z,16.93
2019-03-23T16:14:22.307Z,16.85
2019-03-23T16:16:55.241Z,16.90
2019-03-23T16:19:29.945Z,18.10
2019-03-23T16:22:03.244Z,17.37
2019-03-23T16:24:36.578Z,20.48
2019-03-23T16:27:09.828Z,22.58
2019-03-23T16:29:44.770Z,22.52
2019-03-23T16:32:19.601Z,21.30
2019-03-23T16:34:54.574Z,20.02
2019-03-23T16:37:28.252Z,28.02
2019-03-23T16:40:02.512Z,22.42
2019-03-23T16:42:44.669Z,24.87
2019-03-23T16:45:13.674Z,24.87
2019-03-23T16:47:48.610Z,28.75
2019-03-23T16:50:23.645Z,28.98
2019-03-23T16:52:58.250Z,29.52
2019-03-23T16:55:33.405Z,28.73
2019-03-23T16:58:15.976Z,32.63
2019-03-23T17:00:45.232Z,31.70
2019-03-23T17:03:20.252Z,33.28
2019-03-23T17:05:55.285Z,35.65
2019-03-23T17:08:30.426Z,34.23
2019-03-23T17:11:05.026Z,32.67
2019-03-23T17:13:39.582Z,27.62
2019-03-23T17:16:14.588Z,25.27
2019-03-23T17:18:49.463Z,23.52
2019-03-23T17:21:23.949Z,26.45
2019-03-23T17:23:58.991Z,26.73
2019-03-23T17:26:33.828Z,36.33
2019-03-23T17:29:08.013Z,31.93
2019-03-23T17:31:42.666Z,40.52
2019-03-23T17:34:16.764Z,51.42
2019-03-23T17:36:52.123Z,45.67
2019-03-23T17:39:27.060Z,55.05
2019-03-23T17:42:03.212Z,59.42
2019-03-23T17:44:38.279Z,90.20
2019-03-23T17:47:13.498Z,90.03
2019-03-23T17:49:48.527Z,94.65
2019-03-23T17:52:22.229Z,106.20
2019-03-23T17:54:56.863Z,105.72
2019-03-23T17:57:31.897Z,98.50
2019-03-23T18:00:06.896Z,100.27
2019-03-23T18:02:41.204Z,98.95
2019-03-23T18:05:15.753Z,99.10
2019-03-23T18:07:50.959Z,103.58
2019-03-23T18:10:28.114Z,106.22
2019-03-23T18:13:02.395Z,108.78
2019-03-23T18:15:37.667Z,109.83
2019-03-23T18:18:12.467Z,105.67
2019-03-23T18:20:47.633Z,99.72
2019-03-23T18:23:22.553Z,106.78
2019-03-23T18:25:57.501Z,100.22
2019-03-23T18:28:32.313Z,94.90
2019-03-23T18:31:07.279Z,69.47
2019-03-23T18:33:42.083Z,65.22
2019-03-23T18:36:17.242Z,75.08
2019-03-23T18:38:52.754Z,87.85
2019-03-23T18:41:27.310Z,81.25
2019-03-23T18:44:02.439Z,78.28
2019-03-23T18:46:39.205Z,77.45
2019-03-23T18:49:14.383Z,82.15
2019-03-23T18:51:52.117Z,82.88
2019-03-23T18:54:27.074Z,83.82
2019-03-23T18:57:02.220Z,93.67
2019-03-23T18:59:37.158Z,98.17
2019-03-23T19:02:11.155Z,101.27
2019-03-23T19:04:43.924Z,95.47
2019-03-23T19:07:17.545Z,87.72
2019-03-23T19:09:55.563Z,86.22
2019-03-23T19:12:29.701Z,83.03
2019-03-23T19:15:03.125Z,90.50
2019-03-23T19:17:38.946Z,99.58
2019-03-23T19:20:14.348Z,99.03
2019-03-23T19:22:49.321Z,109.78
2019-03-23T19:25:24.853Z,107.75
2019-03-23T19:27:59.033Z,107.52
2019-03-23T19:30:33.820Z,108.47
2019-03-23T19:33:06.741Z,110.30
2019-03-23T19:35:43.021Z,112.70
2019-03-23T19:38:18.272Z,113.10
2019-03-23T19:40:52.997Z,140.50
2019-03-23T19:43:27.670Z,148.38
2019-03-23T19:46:03.138Z,176.35
2019-03-23T19:48:37.265Z,170.75
2019-03-23T19:51:10.992Z,192.13
2019-03-23T19:53:44.390Z,183.60
2019-03-23T19:56:17.971Z,185.97
2019-03-23T19:58:53.922Z,188.40
2019-03-23T20:01:28.538Z,177.47
2019-03-23T20:04:02.804Z,173.17
2019-03-23T20:06:35.551Z,178.78
2019-03-23T20:09:10.535Z,162.12
2019-03-23T20:11:44.646Z,162.32
2019-03-23T20:14:17.538Z,167.40
2019-03-23T20:16:50.321Z,163.15
2019-03-23T20:19:23.888Z,162.20
2019-03-23T20:21:58.034Z,159.18
2019-03-23T20:24:31.875Z,170.45
2019-03-23T20:27:05.949Z,156.25
2019-03-23T20:29:40.119Z,159.48
2019-03-23T20:32:14.581Z,158.20
2019-03-23T20:34:50.707Z,155.78
2019-03-23T20:37:25.856Z,154.60
2019-03-23T20:40:00.461Z,163.28
2019-03-23T20:42:36.592Z,156.12
2019-03-23T20:45:11.109Z,135.68
2019-03-23T20:47:46.682Z,104.07
2019-03-23T20:50:20.379Z,88.65
2019-03-23T20:52:55.632Z,86.75
2019-03-23T20:55:31.324Z,86.90
2019-03-23T20:58:05.333Z,72.03
2019-03-23T21:00:47.420Z,70.28
2019-03-23T21:03:22.902Z,78.50
2019-03-23T21:05:56.237Z,77.00
2019-03-23T21:08:29.382Z,72.58
2019-03-23T21:11:02.647Z,73.22
2019-03-23T21:13:38.014Z,64.87
2019-03-23T21:16:11.428Z,58.23
2019-03-23T21:18:44.188Z,53.13
2019-03-23T21:21:17.800Z,50.60
2019-03-23T21:23:52.599Z,46.18
2019-03-23T21:26:25.843Z,46.75
2019-03-23T21:28:59.527Z,46.20
2019-03-23T21:31:33.045Z,48.50
2019-03-23T21:34:07.077Z,47.05
2019-03-23T21:36:41.107Z,47.00
2019-03-23T21:39:14.761Z,46.50
2019-03-23T21:41:48.970Z,44.55
2019-03-23T21:44:31.010Z,49.53
2019-03-23T21:46:58.834Z,46.98
2019-03-23T21:49:32.854Z,49.23
2019-03-23T21:52:06.598Z,47.78
2019-03-23T21:54:40.103Z,47.62
2019-03-23T21:57:15.169Z,47.93
2019-03-23T21:59:49.544Z,47.20
2019-03-23T22:02:23.955Z,47.35
2019-03-23T22:04:56.730Z,46.02
2019-03-23T22:07:30.292Z,46.33
2019-03-23T22:10:04.379Z,46.15
2019-03-23T22:12:37.601Z,45.83
2019-03-23T22:15:13.147Z,46.80
2019-03-23T22:17:46.960Z,43.95
2019-03-23T22:20:20.553Z,45.92
2019-03-23T22:22:53.999Z,44.65
2019-03-23T22:25:27.109Z,44.50
2019-03-23T22:28:01.174Z,43.92
2019-03-23T22:30:33.951Z,45.75
2019-03-23T22:33:07.478Z,44.63
2019-03-23T22:35:41.670Z,43.23
2019-03-23T22:38:16.568Z,44.77
2019-03-23T22:40:51.258Z,43.17
2019-03-23T22:43:25.844Z,42.58
2019-03-23T22:46:00.659Z,44.77
2019-03-23T22:48:35.466Z,40.00
2019-03-23T22:51:10.979Z,39.05
2019-03-23T22:53:45.859Z,40.92
2019-03-23T22:56:20.793Z,39.05
2019-03-23T22:58:55.494Z,39.27
2019-03-23T23:01:30.006Z,39.20
2019-03-23T23:04:04.668Z,41.65
2019-03-23T23:06:38.969Z,38.00
2019-03-23T23:09:13.936Z,39.80
2019-03-23T23:11:48.486Z,37.15
2019-03-23T23:14:23.583Z,34.38
2019-03-23T23:16:58.492Z,29.63
2019-03-23T23:19:33.199Z,27.05
2019-03-23T23:22:07.689Z,25.37
2019-03-23T23:24:42.294Z,25.32
2019-03-23T23:27:17.424Z,25.15
2019-03-23T23:29:51.979Z,24.05
2019-03-23T23:32:26.276Z,22.87
2019-03-23T23:35:01.392Z,22.62
2019-03-23T23:37:36.467Z,23.62
2019-03-23T23:40:10.967Z,23.12
2019-03-23T23:42:45.958Z,24.02
2019-03-23T23:45:20.200Z,25.77
2019-03-23T23:47:55.255Z,24.20
2019-03-23T23:50:30.161Z,26.20
2019-03-23T23:53:05.120Z,28.32
2019-03-23T23:55:39.780Z,31.65
2019-03-23T23:58:14.787Z,32.17
